Terminal Aerodrome Forecast
Issued by NWS

Home | Current Version | Previous Version | Text Only | Print | Product List | Glossary On
Versions: 1 2 3 4 5 6 7 8 9 10 11 12 13 14 15 16 17 18 19 20
000
FTUS45 KBOU 261135
TAFAPA
TAF
KAPA 261135Z 2612/2712 18006KT P6SM FEW030
     FM261400 VRB05KT P6SM FEW040
     FM261900 05008KT P6SM FEW080 SCT200
     FM270200 12010KT P6SM SCT080 SCT200
     FM270600 17013KT P6SM SCT200=

USA.gov is the U.S. government's official web portal to all federal, state and local government web resources and services.